Time;durP1;ratioP1;P1;durP2;ratioP2;P2;SDS_P1;SDS_P2;PMS_P1;PMS_P2;Temp;Humidity;BMP_temperature;BMP_pressure;BME280_temperature;BME280_humidity;BME280_pressure;Samples;Min_cycle;Max_cycle;Signal;HPM_P1;HPM_P2
2022/06/10 00:00:37;;;;;;;114.77;108.63;;;;;;;14.45;75.40;97264.03;5075367;28;20182;-70
2022/06/10 00:03:04;;;;;;;107.27;101.40;;;;;;;14.39;75.57;97260.50;5075060;28;20189;-69
2022/06/10 00:05:31;;;;;;;106.20;100.63;;;;;;;14.31;76.09;97254.81;5075126;28;20174;-69
2022/06/10 00:07:57;;;;;;;102.87;97.47;;;;;;;14.26;76.34;97254.72;5074364;28;20227;-69
2022/06/10 00:10:24;;;;;;;101.47;96.07;;;;;;;14.24;76.70;97254.16;5075020;28;20272;-70
2022/06/10 00:12:50;;;;;;;102.40;96.77;;;;;;;14.20;76.89;97256.47;5074840;28;20599;-70
2022/06/10 00:15:17;;;;;;;109.13;103.23;;;;;;;14.10;77.47;97254.44;5056285;28;20411;-70
2022/06/10 00:17:43;;;;;;;103.67;98.17;;;;;;;14.05;77.76;97256.97;5075065;28;20254;-70
2022/06/10 00:20:11;;;;;;;96.30;90.97;;;;;;;14.08;77.80;97263.63;5075015;28;20272;-69
2022/06/10 00:22:37;;;;;;;106.27;100.63;;;;;;;14.06;78.47;97258.59;5075049;28;20197;-69
2022/06/10 00:25:03;;;;;;;143.37;135.77;;;;;;;13.98;79.26;97253.72;5074403;28;20192;-69
2022/06/10 00:27:28;;;;;;;67.43;63.83;;;;;;;14.12;79.31;97255.00;5074592;28;20212;-70
2022/06/10 00:29:54;;;;;;;46.33;43.70;;;;;;;14.01;79.97;97261.13;5074585;28;20177;-69
2022/06/10 00:32:20;;;;;;;65.23;61.37;;;;;;;13.85;81.51;97261.09;5072769;28;20193;-69
2022/06/10 00:34:45;;;;;;;124.83;118.33;;;;;;;13.79;82.15;97260.19;5056550;28;20608;-69
2022/06/10 00:37:11;;;;;;;162.80;154.20;;;;;;;13.85;82.14;97255.81;5074272;28;20221;-69
2022/06/10 00:39:38;;;;;;;106.57;100.87;;;;;;;13.88;81.96;97260.59;5074354;28;20205;-69
2022/06/10 00:42:05;;;;;;;90.77;85.73;;;;;;;13.83;81.97;97258.69;5074650;28;20243;-70
2022/06/10 00:44:43;;;;;;;89.07;84.27;;;;;;;13.96;81.14;97253.16;5073943;28;20638;-69
2022/06/10 00:47:26;;;;;;;93.57;88.57;;;;;;;13.97;80.88;97261.84;5074192;28;20177;-69
2022/06/10 00:49:56;;;;;;;99.87;94.53;;;;;;;14.04;80.28;97254.59;5074288;28;20212;-69
2022/06/10 00:52:34;;;;;;;113.03;106.93;;;;;;;14.00;80.36;97267.44;5074143;28;20185;-70
2022/06/10 00:55:01;;;;;;;144.33;136.57;;;;;;;14.04;80.19;97258.00;5073773;28;20176;-70
2022/06/10 00:57:35;;;;;;;172.87;163.87;;;;;;;13.96;80.38;97260.25;5067079;28;20193;-69
2022/06/10 01:00:08;;;;;;;156.83;148.13;;;;;;;13.85;80.28;97261.09;5074234;28;20176;-69
2022/06/10 01:02:35;;;;;;;112.37;106.27;;;;;;;13.99;79.38;97259.75;5073494;28;20522;-69
2022/06/10 01:05:05;;;;;;;91.50;86.30;;;;;;;13.93;79.52;97261.50;5073553;28;20180;-70
2022/06/10 01:07:37;;;;;;;95.60;90.40;;;;;;;13.92;79.54;97267.03;5073770;28;20263;-69
2022/06/10 01:10:07;;;;;;;96.13;91.10;;;;;;;13.79;80.28;97265.47;5056420;28;20517;-69
2022/06/10 01:13:12;;;;;;;156.03;147.63;;;;;;;13.76;81.43;97259.88;5073914;28;20646;-69
2022/06/10 01:15:52;;;;;;;130.90;124.03;;;;;;;13.78;81.51;97263.88;4982091;28;20200;-70
2022/06/10 01:18:40;;;;;;;61.17;57.77;;;;;;;13.64;82.40;97263.34;5068892;28;20207;-70
2022/06/10 01:21:23;;;;;;;48.23;45.67;;;;;;;13.60;82.30;97256.94;5074138;28;20184;-70
2022/06/10 01:24:00;;;;;;;53.43;50.40;;;;;;;13.59;82.25;97265.09;5073772;28;20697;-70
2022/06/10 01:27:47;;;;;;;50.00;47.13;;;;;;;13.72;81.10;97265.59;5073739;28;20175;-70
2022/06/10 01:30:03;;;;;;;47.07;44.40;;;;;;;13.62;81.60;97267.25;5073153;28;20255;-70
2022/06/10 01:32:41;;;;;;;49.47;46.63;;;;;;;13.69;81.16;97267.91;5071524;28;20228;-70
2022/06/10 01:35:24;;;;;;;45.47;43.03;;;;;;;13.56;81.61;97270.81;5073364;28;20586;-70
2022/06/10 01:38:24;;;;;;;45.30;42.53;;;;;;;13.59;81.39;97267.72;5072963;28;20233;-70
2022/06/10 01:40:55;;;;;;;42.93;40.40;;;;;;;13.44;81.91;97265.56;5059796;28;20538;-70
2022/06/10 01:44:01;;;;;;;44.43;41.87;;;;;;;13.41;82.05;97268.66;5073544;28;20184;-70
2022/06/10 01:46:30;;;;;;;41.53;39.17;;;;;;;13.38;82.41;97268.31;5055196;28;20208;-70
2022/06/10 01:49:04;;;;;;;44.97;42.50;;;;;;;13.39;82.25;97272.56;5073149;28;20201;-70
2022/06/10 01:51:49;;;;;;;44.57;42.07;;;;;;;13.38;82.20;97273.59;5073449;28;20550;-70
2022/06/10 01:54:41;;;;;;;45.90;43.23;;;;;;;13.37;81.67;97272.00;5042814;28;20210;-70
2022/06/10 01:57:19;;;;;;;47.03;44.43;;;;;;;13.26;82.58;97278.91;5070385;28;20197;-70
2022/06/10 01:59:51;;;;;;;31.53;29.70;;;;;;;13.39;82.92;97276.00;5073262;28;20169;-70
2022/06/10 02:02:31;;;;;;;33.27;31.23;;;;;;;13.27;83.54;97273.38;5072975;28;20182;-70
2022/06/10 02:05:09;;;;;;;90.93;85.87;;;;;;;13.08;84.77;97282.41;5072840;28;20230;-70
2022/06/10 02:07:41;;;;;;;119.80;113.27;;;;;;;13.13;84.20;97279.13;5054720;28;20197;-70
2022/06/10 02:10:36;;;;;;;140.20;132.40;;;;;;;13.13;84.22;97279.94;5072549;28;20189;-70
2022/06/10 02:13:07;;;;;;;201.43;190.43;;;;;;;13.10;85.31;97285.59;5059899;28;20193;-70
2022/06/10 02:15:38;;;;;;;48.03;45.40;;;;;;;12.92;86.98;97285.75;5072922;28;20637;-70
2022/06/10 02:18:21;;;;;;;65.00;61.40;;;;;;;12.75;88.47;97282.19;5073135;28;20203;-70
2022/06/10 02:20:53;;;;;;;81.13;76.57;;;;;;;12.87;88.42;97283.78;5067875;28;20235;-70
2022/06/10 02:23:24;;;;;;;87.93;83.03;;;;;;;12.87;88.85;97289.03;5072869;28;20174;-70
2022/06/10 02:25:53;;;;;;;62.67;59.03;;;;;;;12.87;88.30;97286.41;5072544;28;20180;-70
2022/06/10 02:28:28;;;;;;;46.73;44.17;;;;;;;12.86;88.88;97292.72;5072540;28;20228;-70
2022/06/10 02:31:03;;;;;;;50.00;47.07;;;;;;;12.88;88.96;97292.47;5052802;28;20630;-70
2022/06/10 02:33:29;;;;;;;40.73;38.47;;;;;;;12.70;90.81;97295.22;5072278;28;20177;-70
2022/06/10 02:36:04;;;;;;;130.03;123.03;;;;;;;12.72;90.78;97299.22;5072601;28;20185;-70
2022/06/10 02:38:45;;;;;;;106.73;100.80;;;;;;;12.87;89.99;97302.19;5072544;28;20258;-70
2022/06/10 02:41:28;;;;;;;64.00;60.37;;;;;;;12.69;90.92;97296.25;5059676;28;20170;-70
2022/06/10 02:44:16;;;;;;;53.20;50.10;;;;;;;12.52;92.04;97301.38;5072351;28;20192;-70
2022/06/10 02:46:57;;;;;;;40.27;38.07;;;;;;;12.56;92.20;97302.50;5071899;28;20204;-70
2022/06/10 02:49:22;;;;;;;39.00;36.73;;;;;;;12.75;90.78;97301.41;5072376;28;20661;-70
2022/06/10 02:51:49;;;;;;;46.27;43.73;;;;;;;12.58;91.41;97303.09;5072408;28;20268;-70
2022/06/10 02:54:25;;;;;;;48.80;45.80;;;;;;;12.49;92.43;97304.44;5071661;28;20667;-70
2022/06/10 02:56:51;;;;;;;57.07;53.67;;;;;;;12.49;92.40;97307.06;5069709;28;20192;-70
2022/06/10 03:02:21;;;;;;;87.87;83.07;;;;;;;12.41;92.88;97316.09;5072286;28;20225;-69
2022/06/10 03:04:59;;;;;;;86.67;81.80;;;;;;;12.43;92.93;97316.66;5072473;28;20181;-70
2022/06/10 03:07:39;;;;;;;91.93;87.07;;;;;;;12.32;93.12;97320.03;5072387;28;20692;-69
2022/06/10 03:10:32;;;;;;;90.40;85.43;;;;;;;12.32;93.08;97325.31;5071884;28;20199;-70
2022/06/10 03:13:27;;;;;;;81.90;77.37;;;;;;;12.47;92.30;97324.91;5057626;28;20197;-71
2022/06/10 03:16:16;;;;;;;70.80;66.77;;;;;;;12.34;92.78;97332.97;5072580;28;20174;-71
2022/06/10 03:18:57;;;;;;;71.97;68.13;;;;;;;12.34;93.06;97333.78;5072414;28;20197;-71
2022/06/10 03:21:57;;;;;;;77.57;73.07;;;;;;;12.46;92.42;97332.00;5072320;28;20265;-71
2022/06/10 03:24:26;;;;;;;85.47;80.53;;;;;;;12.33;93.01;97336.63;4972752;28;20244;-70
2022/06/10 03:27:17;;;;;;;80.77;76.37;;;;;;;12.41;92.16;97337.13;5056606;28;20197;-71
2022/06/10 03:29:42;;;;;;;95.43;90.47;;;;;;;12.24;93.14;97335.34;5075406;28;20174;-70
2022/06/10 03:32:23;;;;;;;93.67;88.50;;;;;;;12.19;93.66;97343.09;5074145;28;20291;-70
2022/06/10 03:34:55;;;;;;;91.57;86.50;;;;;;;12.50;92.25;97341.03;5075661;28;20673;-71
2022/06/10 03:37:22;;;;;;;91.43;86.50;;;;;;;12.52;91.91;97348.69;5074851;28;20235;-70
2022/06/10 03:39:56;;;;;;;83.97;79.00;;;;;;;12.32;93.08;97345.53;5075131;28;20178;-71
2022/06/10 03:42:24;;;;;;;65.10;61.43;;;;;;;12.66;91.26;97351.91;5075361;28;20264;-70
2022/06/10 03:44:53;;;;;;;76.50;72.33;;;;;;;12.64;91.27;97356.63;5075263;28;20551;-70
2022/06/10 03:47:29;;;;;;;94.43;89.27;;;;;;;12.74;90.80;97357.66;5075162;28;20622;-70
2022/06/10 03:50:12;;;;;;;117.87;111.57;;;;;;;12.80;90.19;97367.28;5075845;28;20173;-70
2022/06/10 03:52:40;;;;;;;117.30;110.90;;;;;;;12.74;90.38;97352.41;5075619;28;20188;-70
2022/06/10 03:55:07;;;;;;;106.93;101.03;;;;;;;12.96;89.19;97360.56;5075347;28;20302;-71
2022/06/10 03:57:34;;;;;;;93.30;88.00;;;;;;;13.20;86.96;97362.22;5074216;28;20185;-71
2022/06/10 04:00:00;;;;;;;144.67;136.77;;;;;;;13.26;86.89;97357.88;5075256;28;20221;-71
2022/06/10 04:02:25;;;;;;;110.73;104.80;;;;;;;13.48;85.30;97361.53;5075189;28;20231;-71
2022/06/10 04:04:51;;;;;;;123.30;116.67;;;;;;;13.56;85.13;97368.25;5075232;28;20190;-71
2022/06/10 04:07:18;;;;;;;184.13;174.33;;;;;;;13.68;84.79;97363.78;5074601;28;20185;-71
2022/06/10 04:09:45;;;;;;;132.70;125.63;;;;;;;13.71;84.43;97373.84;5059341;28;20284;-71
2022/06/10 04:12:11;;;;;;;163.00;154.40;;;;;;;13.67;84.68;97373.50;5075244;28;20174;-71
2022/06/10 04:14:37;;;;;;;150.20;142.27;;;;;;;14.19;81.94;97375.34;5074939;28;20208;-71
2022/06/10 04:17:03;;;;;;;103.17;97.60;;;;;;;14.76;79.52;97376.97;5075106;28;20181;-71
2022/06/10 04:19:28;;;;;;;109.67;103.63;;;;;;;14.59;79.30;97380.59;5074915;28;20181;-70
2022/06/10 04:21:54;;;;;;;106.27;100.73;;;;;;;14.71;79.09;97382.13;5074997;28;20633;-71
2022/06/10 04:24:19;;;;;;;117.83;111.53;;;;;;;14.66;79.18;97379.41;5074724;28;20491;-71
2022/06/10 04:26:45;;;;;;;135.67;128.37;;;;;;;14.77;78.00;97386.44;5074641;28;20191;-71
2022/06/10 04:29:14;;;;;;;113.20;107.03;;;;;;;14.92;77.35;97385.91;5074425;28;20193;-71
2022/06/10 04:31:40;;;;;;;118.60;112.17;;;;;;;15.18;75.98;97384.47;5072743;28;20220;-71
2022/06/10 04:34:06;;;;;;;168.13;159.43;;;;;;;15.16;76.33;97384.72;5074759;28;20225;-71
2022/06/10 04:36:31;;;;;;;154.30;146.17;;;;;;;15.25;75.53;97385.13;5074383;28;20181;-71
2022/06/10 04:38:56;;;;;;;164.17;155.43;;;;;;;15.33;75.01;97387.34;5074516;28;20237;-71
2022/06/10 04:41:22;;;;;;;219.70;207.97;;;;;;;15.44;74.66;97386.44;5073796;28;20178;-71
2022/06/10 04:43:47;;;;;;;227.15;214.95;;;;;;;15.56;73.79;97387.19;5073991;28;20205;-71
2022/06/10 04:46:29;;;;;;;194.98;184.35;;;;;;;15.71;72.84;97397.19;5074576;28;20169;-71
2022/06/10 04:48:55;;;;;;;162.50;153.85;;;;;;;15.94;71.64;97388.22;5074389;28;20553;-71
2022/06/10 04:51:21;;;;;;;119.93;113.40;;;;;;;15.82;72.62;97387.53;5074376;28;20182;-71
2022/06/10 04:53:46;;;;;;;74.68;70.63;;;;;;;16.02;71.14;97395.72;5074294;28;20181;-71
2022/06/10 04:56:12;;;;;;;100.85;95.43;;;;;;;16.52;68.62;97383.06;5073092;28;20572;-70
2022/06/10 04:58:39;;;;;;;144.77;137.27;;;;;;;16.26;68.99;97388.34;5074356;28;20185;-71
2022/06/10 05:01:05;;;;;;;130.48;123.75;;;;;;;15.84;70.66;97393.38;5074136;28;20217;-71
2022/06/10 05:03:30;;;;;;;116.13;110.22;;;;;;;16.20;69.70;97387.47;5056029;28;20268;-71
2022/06/10 05:05:56;;;;;;;92.95;87.90;;;;;;;16.51;68.96;97389.41;5073222;28;20196;-71
2022/06/10 05:08:21;;;;;;;94.22;89.28;;;;;;;16.76;68.56;97398.69;5074220;28;20250;-71
2022/06/10 05:10:47;;;;;;;150.80;143.20;;;;;;;17.02;66.67;97403.16;5073194;28;20268;-71
2022/06/10 05:13:16;;;;;;;173.73;164.68;;;;;;;17.71;64.27;97403.16;5073705;28;20182;-71
2022/06/10 05:15:42;;;;;;;274.13;257.77;;;;;;;17.04;66.34;97393.13;5073340;28;20178;-71
2022/06/10 05:18:10;;;;;;;498.88;465.08;;;;;;;17.15;65.87;97397.44;5073753;28;20234;-71
2022/06/10 05:20:40;;;;;;;148.27;140.45;;;;;;;16.93;66.76;97405.47;5073879;28;20584;-71
2022/06/10 05:23:07;;;;;;;129.98;123.13;;;;;;;17.55;64.83;97404.88;5054818;28;20551;-71
2022/06/10 05:25:32;;;;;;;322.00;303.33;;;;;;;17.65;64.04;97404.97;5073280;28;20251;-71
2022/06/10 05:27:58;;;;;;;359.13;336.42;;;;;;;18.20;62.36;97409.75;5072881;28;20205;-71
2022/06/10 05:30:26;;;;;;;334.50;315.40;;;;;;;18.00;63.12;97407.00;5071305;28;20213;-71
2022/06/10 05:32:52;;;;;;;199.57;189.35;;;;;;;18.00;62.01;97409.66;5073521;28;20235;-71
2022/06/10 05:35:18;;;;;;;390.98;369.00;;;;;;;17.56;63.56;97419.72;5073663;28;20238;-71
2022/06/10 05:37:46;;;;;;;343.33;323.13;;;;;;;18.13;62.15;97413.69;5073208;28;20618;-71
2022/06/10 05:40:13;;;;;;;263.83;249.88;;;;;;;18.26;61.69;97414.03;5072494;28;20185;-71
2022/06/10 05:42:39;;;;;;;172.93;163.73;;;;;;;19.06;59.61;97420.59;5073190;28;20618;-71
2022/06/10 05:45:06;;;;;;;150.02;141.93;;;;;;;18.62;60.14;97419.47;5072693;28;20189;-71
2022/06/10 05:47:34;;;;;;;147.57;139.40;;;;;;;18.63;60.48;97421.06;5073424;28;20295;-71
2022/06/10 05:50:08;;;;;;;144.38;136.75;;;;;;;18.97;59.13;97424.84;5072988;28;20286;-71
2022/06/10 05:52:34;;;;;;;147.88;139.95;;;;;;;19.20;58.56;97425.41;5073387;28;20204;-73
2022/06/10 05:55:02;;;;;;;136.48;129.23;;;;;;;18.90;59.12;97421.63;5072400;28;20213;-71
2022/06/10 05:57:28;;;;;;;135.75;128.48;;;;;;;19.60;57.62;97427.28;5067682;28;20189;-71
2022/06/10 05:59:54;;;;;;;136.13;129.00;;;;;;;19.41;57.50;97429.63;5073061;28;20656;-71
2022/06/10 06:02:21;;;;;;;124.85;118.18;;;;;;;19.56;57.41;97434.19;5054746;28;20181;-71
2022/06/10 06:04:47;;;;;;;112.03;106.05;;;;;;;19.34;58.12;97429.91;5072632;28;20212;-71
2022/06/10 06:07:20;;;;;;;97.95;92.50;;;;;;;19.76;57.94;97429.63;5072803;28;20184;-71
2022/06/10 06:09:45;;;;;;;97.72;92.38;;;;;;;19.80;57.44;97428.03;5073246;28;20181;-71
2022/06/10 06:12:10;;;;;;;103.15;97.80;;;;;;;19.97;56.58;97430.38;5073302;28;20521;-70
2022/06/10 06:14:36;;;;;;;97.40;92.35;;;;;;;20.32;55.96;97427.63;5072847;28;20701;-71
2022/06/10 06:17:03;;;;;;;87.35;82.68;;;;;;;20.80;54.47;97430.56;5072555;28;20652;-70
2022/06/10 06:19:30;;;;;;;90.15;85.22;;;;;;;20.28;55.08;97436.41;5072924;28;20643;-70
2022/06/10 06:21:56;;;;;;;119.50;112.95;;;;;;;20.31;54.66;97436.69;5072237;28;20212;-71
2022/06/10 06:24:21;;;;;;;180.77;171.27;;;;;;;19.74;55.46;97439.72;5054648;28;20274;-71
2022/06/10 06:26:47;;;;;;;118.88;112.35;;;;;;;20.76;54.17;97434.88;5072364;28;20181;-70
2022/06/10 06:29:13;;;;;;;154.45;143.82;;;;;;;20.55;54.10;97442.19;5070738;28;20209;-71
2022/06/10 06:31:39;;;;;;;87.13;82.28;;;;;;;20.73;54.20;97443.41;5072075;28;20222;-71
2022/06/10 06:34:05;;;;;;;89.63;84.75;;;;;;;21.05;53.63;97442.94;5072028;28;20227;-71
2022/06/10 06:36:39;;;;;;;81.15;76.80;;;;;;;21.15;54.41;97440.22;5071916;28;20189;-71
2022/06/10 06:39:05;;;;;;;100.82;95.18;;;;;;;21.14;54.09;97446.59;5071575;28;20236;-70
2022/06/10 06:41:31;;;;;;;93.80;88.72;;;;;;;21.06;54.76;97447.22;5071897;28;20189;-70
2022/06/10 06:43:56;;;;;;;99.45;94.03;;;;;;;20.58;55.87;97448.81;5072359;28;20192;-71
2022/06/10 06:46:22;;;;;;;102.05;96.57;;;;;;;20.26;56.70;97457.97;5072271;28;20271;-71
2022/06/10 06:48:48;;;;;;;103.50;97.40;;;;;;;20.11;57.42;97450.03;5071769;28;20201;-70
2022/06/10 06:51:13;;;;;;;130.75;123.63;;;;;;;20.45;57.00;97457.41;5071398;28;20181;-70
2022/06/10 06:53:39;;;;;;;122.75;115.43;;;;;;;20.85;55.14;97449.19;5071843;28;20189;-70
2022/06/10 06:56:06;;;;;;;101.25;95.50;;;;;;;20.96;54.82;97456.03;5072324;28;20650;-69
2022/06/10 06:58:32;;;;;;;96.13;90.97;;;;;;;20.84;55.03;97450.28;5073740;28;20192;-70
2022/06/10 07:00:57;;;;;;;283.83;267.48;;;;;;;21.13;55.14;97453.00;5074644;28;20189;-70
2022/06/10 07:03:23;;;;;;;132.98;125.35;;;;;;;21.10;54.90;97450.91;5074739;28;20188;-69
2022/06/10 07:05:49;;;;;;;146.38;138.52;;;;;;;21.13;55.23;97459.13;5075805;28;20572;-70
2022/06/10 07:08:15;;;;;;;139.88;132.50;;;;;;;20.86;56.56;97452.66;5075760;28;20224;-69
2022/06/10 07:10:41;;;;;;;172.63;163.60;;;;;;;21.07;56.19;97457.56;5074727;28;20207;-71
2022/06/10 07:13:06;;;;;;;198.63;187.93;;;;;;;20.47;56.42;97465.91;5076048;28;20193;-70
2022/06/10 07:15:32;;;;;;;177.48;168.32;;;;;;;19.00;61.04;97458.84;5075613;28;20201;-69
2022/06/10 07:17:59;;;;;;;249.80;237.45;;;;;;;19.54;59.74;97465.56;5075541;28;20220;-70
2022/06/10 07:20:31;;;;;;;280.63;266.10;;;;;;;19.66;60.11;97464.22;5075733;28;20189;-69
2022/06/10 07:22:59;;;;;;;281.52;266.15;;;;;;;20.46;56.36;97467.78;5068755;28;20180;-69
2022/06/10 07:25:25;;;;;;;265.83;252.02;;;;;;;20.21;56.38;97463.31;5075678;28;20182;-69
2022/06/10 07:27:52;;;;;;;223.48;212.00;;;;;;;19.29;58.90;97466.31;5074795;28;20609;-69
2022/06/10 07:30:20;;;;;;;213.38;202.32;;;;;;;19.55;58.30;97462.66;5073677;28;20193;-69
2022/06/10 07:32:46;;;;;;;280.73;265.58;;;;;;;19.84;58.37;97463.66;5074844;28;20182;-68
2022/06/10 07:35:13;;;;;;;312.45;296.05;;;;;;;20.43;57.45;97462.19;5075510;28;20181;-68
2022/06/10 07:37:39;;;;;;;286.88;271.63;;;;;;;20.63;57.43;97456.78;5074746;28;20278;-68
2022/06/10 07:40:06;;;;;;;315.17;298.73;;;;;;;20.44;56.74;97456.59;5074854;28;20189;-68
2022/06/10 07:42:34;;;;;;;293.40;277.92;;;;;;;19.79;57.61;97470.84;5075072;28;20185;-67
2022/06/10 07:44:59;;;;;;;343.33;325.45;;;;;;;20.22;56.95;97459.59;5074873;28;20193;-68
2022/06/10 07:47:25;;;;;;;235.10;223.13;;;;;;;20.68;55.02;97456.75;5074461;28;20185;-69
2022/06/10 07:49:50;;;;;;;184.95;173.82;;;;;;;20.61;54.69;97451.75;5075042;28;20603;-68
2022/06/10 07:52:15;;;;;;;186.40;176.52;;;;;;;20.64;55.10;97455.72;5074802;28;20262;-68
2022/06/10 07:54:41;;;;;;;153.48;144.77;;;;;;;20.78;54.46;97454.03;5073139;28;20180;-68
2022/06/10 07:57:08;;;;;;;156.63;148.52;;;;;;;21.14;53.34;97444.75;5075146;28;20193;-68
2022/06/10 07:59:34;;;;;;;140.80;133.32;;;;;;;21.44;52.91;97453.63;5074903;28;20677;-69
2022/06/10 08:01:59;;;;;;;117.43;110.88;;;;;;;21.15;51.96;97451.69;5074778;28;20213;-69
2022/06/10 08:04:25;;;;;;;115.63;109.43;;;;;;;21.67;52.31;97452.88;5075067;28;20260;-68
2022/06/10 08:06:50;;;;;;;80.57;75.75;;;;;;;21.80;50.48;97449.53;5074950;28;20209;-68
2022/06/10 08:09:20;;;;;;;70.95;66.80;;;;;;;21.60;50.68;97451.59;5072818;28;20247;-68
2022/06/10 08:11:49;;;;;;;70.00;66.20;;;;;;;21.40;51.37;97442.69;5075192;28;20630;-68
2022/06/10 08:14:15;;;;;;;81.45;76.85;;;;;;;21.49;51.66;97443.69;5075005;28;20192;-69
2022/06/10 08:16:40;;;;;;;65.28;61.70;;;;;;;21.61;52.09;97451.34;5074858;28;20189;-69
2022/06/10 08:19:06;;;;;;;63.00;59.35;;;;;;;21.93;51.50;97448.09;5074429;28;20192;-68
2022/06/10 08:24:17;;;;;;;227.88;215.38;;;;;;;22.04;49.56;97444.25;5074500;28;20192;-68
2022/06/10 08:26:42;;;;;;;209.20;197.88;;;;;;;22.29;49.64;97443.94;5074417;28;20497;-68
2022/06/10 08:29:08;;;;;;;182.40;172.68;;;;;;;22.16;49.54;97451.88;5072207;28;20657;-68
2022/06/10 08:31:34;;;;;;;297.45;281.17;;;;;;;22.14;49.57;97454.03;5074553;28;20189;-68
2022/06/10 08:33:59;;;;;;;288.05;272.60;;;;;;;22.47;49.46;97445.06;5073888;28;20212;-68
2022/06/10 08:36:25;;;;;;;369.55;348.77;;;;;;;22.31;49.47;97446.34;5074192;28;20231;-68
2022/06/10 08:38:51;;;;;;;410.42;387.27;;;;;;;22.21;49.00;97451.81;5072818;28;20266;-68
2022/06/10 08:41:23;;;;;;;490.50;462.27;;;;;;;21.02;51.80;97452.28;5073301;28;20379;-68
2022/06/10 08:43:54;;;;;;;391.35;369.00;;;;;;;20.89;51.57;97452.13;5074151;28;20386;-68
2022/06/10 08:46:42;;;;;;;142.38;134.27;;;;;;;20.71;53.00;97450.88;5074044;28;20185;-68
2022/06/10 08:49:38;;;;;;;81.22;76.63;;;;;;;20.86;52.11;97447.31;5074409;28;20197;-67
2022/06/10 08:52:12;;;;;;;73.20;69.07;;;;;;;20.23;53.57;97452.38;5060799;28;20165;-68
2022/06/10 08:54:49;;;;;;;81.20;76.43;;;;;;;20.06;53.39;97460.69;5065084;28;20190;-68
2022/06/10 08:57:32;;;;;;;109.82;103.68;;;;;;;20.10;54.37;97452.97;5060922;28;20268;-68
2022/06/10 08:59:59;;;;;;;83.35;78.53;;;;;;;20.33;52.17;97447.06;5073455;28;20264;-68
2022/06/10 09:02:42;;;;;;;126.55;119.63;;;;;;;20.33;53.43;97447.88;5073767;28;20188;-68
2022/06/10 09:05:13;;;;;;;109.95;103.88;;;;;;;20.47;52.45;97453.38;5073371;28;20272;-68
2022/06/10 09:07:43;;;;;;;136.38;128.85;;;;;;;21.08;51.45;97443.19;5073641;28;20205;-68
2022/06/10 09:10:37;;;;;;;110.32;103.93;;;;;;;20.73;51.25;97456.75;5060837;28;20181;-68
2022/06/10 09:13:06;;;;;;;104.38;98.70;;;;;;;19.80;53.86;97456.50;5066718;28;20257;-68
2022/06/10 09:15:33;;;;;;;106.68;100.93;;;;;;;20.04;53.11;97452.19;5073540;28;20229;-68
2022/06/10 09:18:14;;;;;;;113.82;107.60;;;;;;;20.32;53.71;97448.94;5073615;28;20243;-68
2022/06/10 09:20:54;;;;;;;178.43;168.63;;;;;;;21.32;52.42;97445.16;5072440;28;20230;-68
2022/06/10 09:23:32;;;;;;;92.57;87.47;;;;;;;21.61;50.51;97455.88;5073392;28;20177;-68
2022/06/10 09:26:07;;;;;;;89.35;84.30;;;;;;;22.24;49.42;97441.34;5072384;28;20168;-68
2022/06/10 09:28:33;;;;;;;105.28;99.35;;;;;;;21.29;51.61;97446.50;5071397;28;20209;-68
2022/06/10 09:31:08;;;;;;;126.65;119.60;;;;;;;21.64;50.88;97447.28;5073415;28;20201;-68
2022/06/10 09:33:46;;;;;;;203.15;191.73;;;;;;;22.21;48.35;97454.47;5073237;28;20208;-68
2022/06/10 09:36:31;;;;;;;302.90;286.25;;;;;;;22.14;47.69;97454.03;5058379;28;20184;-69
2022/06/10 09:39:01;;;;;;;332.60;312.90;;;;;;;21.74;46.05;97444.53;5073354;28;20225;-68
2022/06/10 09:41:59;;;;;;;285.95;269.00;;;;;;;21.45;47.11;97441.88;5072317;28;20545;-68
2022/06/10 09:44:40;;;;;;;359.95;339.10;;;;;;;20.76;48.78;97453.50;5073141;28;20536;-68
2022/06/10 09:47:28;;;;;;;363.80;342.83;;;;;;;20.90;48.03;97449.16;5073049;28;20185;-68
2022/06/10 09:50:17;;;;;;;319.85;301.38;;;;;;;20.18;48.81;97455.06;5073055;28;20170;-68
2022/06/10 09:52:58;;;;;;;495.83;467.92;;;;;;;21.03;49.00;97453.06;5072963;28;20182;-69
2022/06/10 09:55:39;;;;;;;378.70;357.75;;;;;;;20.83;48.99;97443.34;5071580;28;20217;-69
2022/06/10 09:58:19;;;;;;;354.48;334.58;;;;;;;20.92;47.27;97443.56;5073079;28;20290;-68
2022/06/10 10:01:29;;;;;;;308.75;291.58;;;;;;;21.39;46.53;97443.00;5072530;28;20185;-68
2022/06/10 10:04:44;;;;;;;348.15;328.52;;;;;;;21.27;46.53;97447.88;5072068;28;20254;-68
2022/06/10 10:07:24;;;;;;;263.42;248.75;;;;;;;21.57;45.74;97436.94;4983137;28;20210;-68
2022/06/10 10:10:23;;;;;;;315.00;297.65;;;;;;;21.94;45.30;97439.81;5072558;28;20222;-68
2022/06/10 10:12:58;;;;;;;295.38;279.23;;;;;;;22.02;45.01;97427.72;5067938;28;20191;-68
2022/06/10 10:15:42;;;;;;;300.10;283.63;;;;;;;22.06;45.30;97430.63;5072494;28;20633;-68
2022/06/10 10:18:26;;;;;;;308.15;291.33;;;;;;;21.76;44.08;97432.50;5072381;28;20185;-68
2022/06/10 10:21:12;;;;;;;222.13;210.10;;;;;;;21.64;44.02;97431.28;5055867;28;20177;-69
2022/06/10 10:23:59;;;;;;;272.27;257.95;;;;;;;21.44;44.55;97421.59;5072472;28;20185;-68
2022/06/10 10:26:32;;;;;;;232.23;220.13;;;;;;;21.88;44.85;97422.25;5071300;28;20229;-68
2022/06/10 10:29:04;;;;;;;601.50;562.55;;;;;;;21.64;42.10;97424.06;5070313;28;20255;-68
2022/06/10 10:31:35;;;;;;;253.35;240.55;;;;;;;22.02;44.72;97426.91;5071858;28;20186;-68
2022/06/10 10:34:04;;;;;;;612.00;573.60;;;;;;;21.97;42.64;97417.09;5072265;28;20188;-68
2022/06/10 10:36:30;;;;;;;570.00;534.20;;;;;;;21.68;42.93;97419.00;5072450;28;20587;-68
2022/06/10 10:38:56;;;;;;;629.13;589.88;;;;;;;22.06;43.53;97417.28;5071400;28;20232;-68
2022/06/10 10:41:22;;;;;;;536.70;504.60;;;;;;;22.16;42.44;97414.47;5071670;28;20235;-69
2022/06/10 10:43:51;;;;;;;515.90;484.10;;;;;;;21.37;43.38;97419.25;5072170;28;20185;-70
2022/06/10 10:46:34;;;;;;;718.80;674.35;;;;;;;21.50;45.03;97415.94;5072080;28;20568;-68
2022/06/10 10:49:04;;;;;;;630.75;593.15;;;;;;;21.47;44.96;97416.50;5071261;28;20681;-68
2022/06/10 10:51:50;;;;;;;456.88;432.08;;;;;;;21.99;44.58;97420.28;5072154;28;20242;-68
2022/06/10 10:54:21;;;;;;;328.08;311.30;;;;;;;22.18;44.28;97415.00;5067418;28;20663;-68
2022/06/10 10:56:49;;;;;;;239.43;227.15;;;;;;;22.49;44.63;97420.75;5071764;28;20204;-68
2022/06/10 10:59:36;;;;;;;591.63;555.75;;;;;;;22.42;42.70;97418.44;5071782;28;20185;-68
2022/06/10 11:02:25;;;;;;;482.17;453.75;;;;;;;22.78;42.27;97416.91;5071605;28;20599;-68
2022/06/10 11:04:50;;;;;;;439.77;413.90;;;;;;;22.96;42.07;97417.97;5012359;28;20225;-68
2022/06/10 11:07:20;;;;;;;363.52;341.45;;;;;;;23.17;42.55;97424.63;5070998;28;20212;-68
2022/06/10 11:09:52;;;;;;;817.85;760.15;;;;;;;23.31;40.65;97418.50;5071786;28;20189;-68
2022/06/10 11:12:26;;;;;;;599.05;561.67;;;;;;;22.68;39.86;97424.25;5071943;28;20231;-69
2022/06/10 11:15:16;;;;;;;642.45;603.42;;;;;;;22.63;41.27;97416.28;5071891;28;20174;-68
2022/06/10 11:17:43;;;;;;;718.25;672.55;;;;;;;22.47;41.13;97417.56;5072342;28;20181;-68
2022/06/10 11:20:14;;;;;;;715.05;671.22;;;;;;;22.75;40.57;97411.31;5053366;28;20185;-68
2022/06/10 11:22:43;;;;;;;581.58;546.10;;;;;;;22.79;41.30;97407.78;5071483;28;20585;-69
2022/06/10 11:25:14;;;;;;;714.80;670.15;;;;;;;22.53;41.58;97419.88;5071484;28;20203;-69
2022/06/10 11:27:49;;;;;;;585.03;550.92;;;;;;;22.52;41.51;97409.47;5070192;28;20189;-69
2022/06/10 11:30:15;;;;;;;616.25;578.78;;;;;;;21.96;41.74;97412.81;5072252;28;20184;-68
2022/06/10 11:33:02;;;;;;;484.42;456.42;;;;;;;21.66;42.53;97405.13;5071402;28;20209;-68
2022/06/10 11:35:31;;;;;;;673.80;633.65;;;;;;;21.48;43.16;97412.75;5058140;28;20181;-68